createdAt,value
2018-05-11T00:01:00.117Z,287
2018-05-11T00:02:07.321Z,288
2018-05-11T00:03:14.263Z,287
2018-05-11T00:04:21.466Z,287
2018-05-11T00:05:28.123Z,287
2018-05-11T00:06:35.054Z,288
2018-05-11T00:07:42.260Z,288
2018-05-11T00:08:49.475Z,288
2018-05-11T00:09:56.675Z,288
2018-05-11T00:11:03.880Z,288
2018-05-11T00:12:11.087Z,288
2018-05-11T00:13:18.017Z,289
2018-05-11T00:14:24.999Z,288
2018-05-11T00:15:32.203Z,288
2018-05-11T00:16:39.407Z,288
2018-05-11T00:17:46.620Z,288
2018-05-11T00:18:53.829Z,288
2018-05-11T00:20:01.048Z,287
2018-05-11T00:21:08.257Z,288
2018-05-11T00:22:15.455Z,288
2018-05-11T00:23:22.910Z,288
2018-05-11T00:24:30.207Z,288
2018-05-11T00:25:37.410Z,287
2018-05-11T00:26:44.611Z,287
2018-05-11T00:27:51.815Z,288
2018-05-11T00:28:59.023Z,288
2018-05-11T00:30:06.227Z,288
2018-05-11T00:31:13.428Z,289
2018-05-11T00:32:20.640Z,288
2018-05-11T00:33:27.564Z,288
2018-05-11T00:34:34.766Z,288
2018-05-11T00:35:41.698Z,288
2018-05-11T00:36:48.906Z,288
2018-05-11T00:37:56.109Z,288
2018-05-11T00:39:03.313Z,288
2018-05-11T00:40:10.520Z,288
2018-05-11T00:41:17.724Z,288
2018-05-11T00:42:24.929Z,288
2018-05-11T00:43:32.128Z,287
2018-05-11T00:44:39.069Z,287
2018-05-11T00:45:46.274Z,287
2018-05-11T00:46:53.202Z,287
2018-05-11T00:48:00.404Z,288
2018-05-11T00:49:07.613Z,287
2018-05-11T00:50:14.818Z,287
2018-05-11T00:51:22.020Z,287
2018-05-11T00:52:28.954Z,288
2018-05-11T00:53:36.162Z,288
2018-05-11T00:54:43.396Z,288
2018-05-11T00:55:50.674Z,288
2018-05-11T00:56:57.886Z,288
2018-05-11T00:58:05.095Z,288
2018-05-11T00:59:12.302Z,287
2018-05-11T01:00:19.510Z,288
2018-05-11T01:01:26.714Z,288
2018-05-11T01:02:33.919Z,288
2018-05-11T01:03:40.855Z,288
2018-05-11T01:04:48.059Z,288
2018-05-11T01:05:55.265Z,288
2018-05-11T01:07:02.202Z,288
2018-05-11T01:08:09.407Z,288
2018-05-11T01:09:16.610Z,288
2018-05-11T01:10:23.819Z,287
2018-05-11T01:11:31.026Z,288
2018-05-11T01:12:38.233Z,288
2018-05-11T01:13:45.437Z,287
2018-05-11T01:14:52.642Z,288
2018-05-11T01:15:59.845Z,287
2018-05-11T01:17:06.784Z,288
2018-05-11T01:18:13.986Z,288
2018-05-11T01:19:21.200Z,288
2018-05-11T01:20:28.425Z,288
2018-05-11T01:21:35.654Z,288
2018-05-11T01:22:42.857Z,288
2018-05-11T01:23:50.083Z,288
2018-05-11T01:24:57.289Z,288
2018-05-11T01:26:04.492Z,288
2018-05-11T01:27:11.697Z,288
2018-05-11T01:28:18.902Z,289
2018-05-11T01:29:26.105Z,288
2018-05-11T01:30:33.311Z,288
2018-05-11T01:31:40.520Z,288
2018-05-11T01:32:47.729Z,288
2018-05-11T01:33:54.934Z,289
2018-05-11T01:35:02.140Z,289
2018-05-11T01:36:09.078Z,289
2018-05-11T01:37:16.282Z,288
2018-05-11T01:38:23.211Z,289
2018-05-11T01:39:30.419Z,289
2018-05-11T01:40:37.620Z,289
2018-05-11T01:41:44.553Z,289
2018-05-11T01:42:51.755Z,289
2018-05-11T01:43:58.965Z,289
2018-05-11T01:45:06.172Z,289
2018-05-11T01:46:13.377Z,289
2018-05-11T01:47:20.584Z,289
2018-05-11T01:48:27.787Z,289
2018-05-11T01:49:34.994Z,289
2018-05-11T01:50:42.197Z,289
2018-05-11T01:51:49.399Z,289
2018-05-11T01:52:56.610Z,289
2018-05-11T01:54:03.812Z,290
2018-05-11T01:55:11.019Z,289
2018-05-11T01:56:18.223Z,289
2018-05-11T01:57:25.426Z,289
2018-05-11T01:58:32.632Z,289
2018-05-11T01:59:39.558Z,289
2018-05-11T02:00:46.762Z,289
2018-05-11T02:01:53.966Z,289
2018-05-11T02:03:01.170Z,289
2018-05-11T02:04:08.371Z,289
2018-05-11T02:05:15.575Z,289
2018-05-11T02:06:22.778Z,289
2018-05-11T02:07:29.986Z,289
2018-05-11T02:08:37.188Z,289
2018-05-11T02:09:44.415Z,289
2018-05-11T02:10:51.624Z,289
2018-05-11T02:11:58.838Z,289
2018-05-11T02:13:06.049Z,289
2018-05-11T02:14:13.252Z,289
2018-05-11T02:15:20.184Z,289
2018-05-11T02:16:27.388Z,289
2018-05-11T02:17:34.594Z,289
2018-05-11T02:18:41.951Z,289
2018-05-11T02:19:49.229Z,289
2018-05-11T02:20:56.430Z,290
2018-05-11T02:22:03.362Z,289
2018-05-11T02:23:10.567Z,290
2018-05-11T02:24:17.774Z,289
2018-05-11T02:25:24.983Z,289
2018-05-11T02:26:32.186Z,289
2018-05-11T02:27:39.126Z,290
2018-05-11T02:28:46.332Z,289
2018-05-11T02:29:53.538Z,289
2018-05-11T02:31:00.741Z,290
2018-05-11T02:32:07.943Z,290
2018-05-11T02:33:15.150Z,290
2018-05-11T02:34:22.355Z,289
2018-05-11T02:35:29.282Z,290
2018-05-11T02:36:36.489Z,290
2018-05-11T02:37:43.712Z,290
2018-05-11T02:38:50.914Z,290
2018-05-11T02:39:58.124Z,290
2018-05-11T02:41:05.349Z,290
2018-05-11T02:42:12.273Z,290
2018-05-11T02:43:19.474Z,290
2018-05-11T02:44:26.397Z,290
2018-05-11T02:45:33.597Z,290
2018-05-11T02:46:40.252Z,290
2018-05-11T02:47:47.452Z,290
2018-05-11T02:48:54.663Z,290
2018-05-11T02:50:01.890Z,291
2018-05-11T02:51:09.096Z,291
2018-05-11T02:52:16.326Z,291
2018-05-11T02:53:23.532Z,291
2018-05-11T02:54:30.793Z,291
2018-05-11T02:55:38.002Z,291
2018-05-11T02:56:45.206Z,291
2018-05-11T02:57:52.420Z,291
2018-05-11T02:58:59.623Z,291
2018-05-11T03:00:06.827Z,291
2018-05-11T03:01:14.042Z,291
2018-05-11T03:02:21.248Z,291
2018-05-11T03:03:28.448Z,291
2018-05-11T03:04:35.649Z,291
2018-05-11T03:05:43.059Z,291
2018-05-11T03:06:50.268Z,291
2018-05-11T03:07:57.474Z,292
2018-05-11T03:09:04.679Z,291
2018-05-11T03:10:11.884Z,292
2018-05-11T03:11:19.085Z,292
2018-05-11T03:12:26.291Z,292
2018-05-11T03:13:33.221Z,293
2018-05-11T03:14:40.426Z,292
2018-05-11T03:15:47.633Z,292
2018-05-11T03:16:54.838Z,292
2018-05-11T03:18:02.049Z,292
2018-05-11T03:19:09.263Z,292
2018-05-11T03:20:16.533Z,292
2018-05-11T03:21:23.735Z,292
2018-05-11T03:22:30.664Z,293
2018-05-11T03:23:37.898Z,293
2018-05-11T03:24:45.100Z,294
2018-05-11T03:25:52.370Z,294
2018-05-11T03:26:59.602Z,294
2018-05-11T03:28:06.813Z,294
2018-05-11T03:29:14.020Z,294
2018-05-11T03:30:21.437Z,294
2018-05-11T03:31:28.653Z,294
2018-05-11T03:32:35.845Z,295
2018-05-11T03:33:43.052Z,295
2018-05-11T03:34:50.259Z,295
2018-05-11T03:35:57.464Z,297
2018-05-11T03:37:04.676Z,298
2018-05-11T03:38:11.882Z,298
2018-05-11T03:39:19.090Z,298
2018-05-11T03:40:26.297Z,298
2018-05-11T03:41:33.504Z,298
2018-05-11T03:42:40.725Z,298
2018-05-11T03:43:48.001Z,298
2018-05-11T03:44:55.204Z,298
2018-05-11T03:46:02.408Z,298
2018-05-11T03:47:09.615Z,298
2018-05-11T03:48:16.818Z,298
2018-05-11T03:49:24.025Z,299
2018-05-11T03:50:31.230Z,299
2018-05-11T03:51:38.436Z,299
2018-05-11T03:52:45.639Z,299
2018-05-11T03:53:52.861Z,299
2018-05-11T03:54:59.791Z,300
2018-05-11T03:56:06.996Z,299
2018-05-11T03:57:14.203Z,300
2018-05-11T03:58:21.134Z,300
2018-05-11T03:59:28.343Z,300
2018-05-11T04:00:35.546Z,301
2018-05-11T04:01:42.762Z,302
2018-05-11T04:02:49.965Z,302
2018-05-11T04:03:56.890Z,302
2018-05-11T04:05:03.825Z,301
2018-05-11T04:06:11.034Z,302
2018-05-11T04:07:18.234Z,301
2018-05-11T04:08:25.440Z,301
2018-05-11T04:09:32.642Z,301
2018-05-11T04:10:39.850Z,300
2018-05-11T04:11:46.792Z,300
2018-05-11T04:12:54.011Z,300
2018-05-11T04:14:01.249Z,300
2018-05-11T04:15:08.171Z,321
2018-05-11T04:16:15.375Z,321
2018-05-11T04:17:22.574Z,321
2018-05-11T04:18:29.776Z,321
2018-05-11T04:19:36.997Z,320
2018-05-11T04:20:44.416Z,320
2018-05-11T04:21:51.706Z,320
2018-05-11T04:22:58.641Z,320
2018-05-11T04:24:05.854Z,320
2018-05-11T04:25:13.068Z,320
2018-05-11T04:26:19.998Z,319
2018-05-11T04:27:27.221Z,319
2018-05-11T04:28:34.422Z,319
2018-05-11T04:29:41.624Z,318
2018-05-11T04:30:48.831Z,319
2018-05-11T04:31:56.047Z,318
2018-05-11T04:33:03.248Z,318
2018-05-11T04:34:10.452Z,318
2018-05-11T04:35:17.388Z,318
2018-05-11T04:36:24.587Z,318
2018-05-11T04:37:31.789Z,318
2018-05-11T04:38:38.999Z,317
2018-05-11T04:39:46.199Z,317
2018-05-11T04:40:53.409Z,316
2018-05-11T04:42:00.620Z,316
2018-05-11T04:43:07.819Z,316
2018-05-11T04:44:15.034Z,316
2018-05-11T04:45:22.468Z,316
2018-05-11T04:46:29.776Z,316
2018-05-11T04:47:36.712Z,316
2018-05-11T04:48:43.917Z,316
2018-05-11T04:49:51.126Z,315
2018-05-11T04:50:58.336Z,316
2018-05-11T04:52:05.548Z,315
2018-05-11T04:53:12.765Z,315
2018-05-11T04:54:19.970Z,315
2018-05-11T04:55:27.176Z,315
2018-05-11T04:56:34.381Z,315
2018-05-11T04:57:41.324Z,315
2018-05-11T04:58:48.533Z,316
2018-05-11T04:59:55.738Z,316
2018-05-11T05:01:02.951Z,316
2018-05-11T05:02:10.157Z,318
2018-05-11T05:03:17.357Z,317
2018-05-11T05:04:24.284Z,316
2018-05-11T05:05:31.487Z,314
2018-05-11T05:06:38.693Z,313
2018-05-11T05:07:45.896Z,312
2018-05-11T05:08:53.101Z,311
2018-05-11T05:10:00.307Z,310
2018-05-11T05:11:07.507Z,309
2018-05-11T05:12:14.716Z,309
2018-05-11T05:13:21.991Z,309
2018-05-11T05:14:29.197Z,309
2018-05-11T05:15:36.128Z,309
2018-05-11T05:16:43.334Z,309
2018-05-11T05:17:50.541Z,309
2018-05-11T05:18:57.742Z,309
2018-05-11T05:20:05.021Z,309
2018-05-11T05:21:12.230Z,309
2018-05-11T05:22:19.436Z,310
2018-05-11T05:23:26.723Z,310
2018-05-11T05:24:33.657Z,310
2018-05-11T05:25:40.860Z,311
2018-05-11T05:26:48.067Z,311
2018-05-11T05:27:54.997Z,312
2018-05-11T05:29:01.961Z,311
2018-05-11T05:30:08.902Z,312
2018-05-11T05:31:16.105Z,313
2018-05-11T05:32:23.034Z,313
2018-05-11T05:33:30.240Z,313
2018-05-11T05:34:37.456Z,313
2018-05-11T05:35:44.660Z,313
2018-05-11T05:36:51.876Z,314
2018-05-11T05:37:59.075Z,313
2018-05-11T05:39:06.506Z,314
2018-05-11T05:40:13.484Z,314
2018-05-11T05:41:20.415Z,314
2018-05-11T05:42:27.619Z,314
2018-05-11T05:43:34.826Z,314
2018-05-11T05:44:42.082Z,314
2018-05-11T05:45:49.300Z,315
2018-05-11T05:46:56.571Z,315
2018-05-11T05:48:03.770Z,315
2018-05-11T05:49:10.983Z,315
2018-05-11T05:50:18.196Z,315
2018-05-11T05:51:25.130Z,315
2018-05-11T05:52:32.337Z,316
2018-05-11T05:53:39.595Z,316
2018-05-11T05:54:46.808Z,316
2018-05-11T05:55:53.746Z,317
2018-05-11T05:57:00.957Z,317
2018-05-11T05:58:07.890Z,317
2018-05-11T05:59:15.092Z,317
2018-05-11T06:00:22.314Z,318
2018-05-11T06:01:29.512Z,318
2018-05-11T06:02:36.832Z,318
2018-05-11T06:03:44.102Z,318
2018-05-11T06:04:51.312Z,318
2018-05-11T06:05:58.512Z,319
2018-05-11T06:07:05.437Z,318
2018-05-11T06:08:12.835Z,318
2018-05-11T06:09:20.111Z,318
2018-05-11T06:10:27.318Z,319
2018-05-11T06:11:34.251Z,320
2018-05-11T06:12:41.457Z,320
2018-05-11T06:13:48.665Z,320
2018-05-11T06:14:55.873Z,321
2018-05-11T06:16:02.810Z,320
2018-05-11T06:17:09.742Z,321
2018-05-11T06:18:16.948Z,321
2018-05-11T06:19:24.152Z,321
2018-05-11T06:20:31.362Z,321
2018-05-11T06:21:38.584Z,322
2018-05-11T06:22:45.786Z,322
2018-05-11T06:23:53.061Z,322
2018-05-11T06:25:00.266Z,322
2018-05-11T06:26:22.119Z,322
2018-05-11T06:27:29.332Z,322
2018-05-11T06:28:36.540Z,323
2018-05-11T06:29:43.746Z,323
2018-05-11T06:30:50.955Z,323
2018-05-11T06:31:57.908Z,323
2018-05-11T06:33:05.147Z,323
2018-05-11T06:34:12.355Z,324
2018-05-11T06:35:19.558Z,325
2018-05-11T06:36:26.763Z,324
2018-05-11T06:37:33.974Z,324
2018-05-11T06:38:41.178Z,324
2018-05-11T06:39:47.832Z,324
2018-05-11T06:40:55.043Z,325
2018-05-11T06:42:02.252Z,324
2018-05-11T06:43:09.464Z,324
2018-05-11T06:44:16.671Z,325
2018-05-11T06:45:23.884Z,325
2018-05-11T06:46:31.087Z,326
2018-05-11T06:47:38.306Z,327
2018-05-11T06:48:45.506Z,327
2018-05-11T06:49:52.439Z,327
2018-05-11T06:50:59.659Z,328
2018-05-11T06:52:06.878Z,328
2018-05-11T06:53:14.083Z,327
2018-05-11T06:54:21.017Z,327
2018-05-11T06:55:28.266Z,327
2018-05-11T06:56:35.478Z,327
2018-05-11T06:57:42.702Z,327
2018-05-11T06:58:49.912Z,327
2018-05-11T06:59:57.123Z,327
2018-05-11T07:01:04.341Z,329
2018-05-11T07:02:11.550Z,328
2018-05-11T07:03:18.763Z,328
2018-05-11T07:04:26.024Z,329
2018-05-11T07:05:32.967Z,329
2018-05-11T07:06:40.171Z,329
2018-05-11T07:07:47.797Z,330
2018-05-11T07:08:55.268Z,331
2018-05-11T07:10:02.422Z,330
2018-05-11T07:11:09.629Z,330
2018-05-11T07:12:16.289Z,330
2018-05-11T07:13:23.492Z,330
2018-05-11T07:14:30.700Z,329
2018-05-11T07:15:37.907Z,330
2018-05-11T07:16:45.120Z,329
2018-05-11T07:17:52.051Z,329
2018-05-11T07:18:59.262Z,329
2018-05-11T07:20:06.468Z,329
2018-05-11T07:21:13.675Z,329
2018-05-11T07:22:20.616Z,329
2018-05-11T07:23:27.837Z,329
2018-05-11T07:24:34.775Z,329
2018-05-11T07:25:41.964Z,329
2018-05-11T07:26:49.268Z,331
2018-05-11T07:27:56.482Z,330
2018-05-11T07:29:03.696Z,330
2018-05-11T07:30:10.914Z,331
2018-05-11T07:31:18.124Z,331
2018-05-11T07:32:25.055Z,330
2018-05-11T07:33:31.995Z,331
2018-05-11T07:34:38.929Z,330
2018-05-11T07:35:45.859Z,330
2018-05-11T07:36:53.074Z,330
2018-05-11T07:38:00.286Z,331
2018-05-11T07:39:07.232Z,331
2018-05-11T07:40:14.458Z,330
2018-05-11T07:41:21.667Z,332
2018-05-11T07:42:28.882Z,331
2018-05-11T07:43:36.096Z,330
2018-05-11T07:44:43.024Z,329
2018-05-11T07:45:49.751Z,329
2018-05-11T07:46:56.961Z,328
2018-05-11T07:48:04.173Z,327
2018-05-11T07:49:11.378Z,327
2018-05-11T07:50:18.590Z,327
2018-05-11T07:51:25.845Z,326
2018-05-11T07:52:32.856Z,326
2018-05-11T07:53:40.071Z,327
2018-05-11T07:54:47.282Z,327
2018-05-11T07:55:54.494Z,326
2018-05-11T07:57:01.707Z,327
2018-05-11T07:58:08.924Z,328
2018-05-11T07:59:16.135Z,328
2018-05-11T08:00:23.343Z,330
2018-05-11T08:01:30.552Z,329
2018-05-11T08:02:37.764Z,332
2018-05-11T08:03:44.980Z,333
2018-05-11T08:04:52.189Z,334
2018-05-11T08:05:59.465Z,333
2018-05-11T08:07:06.695Z,333
2018-05-11T08:08:13.906Z,333
2018-05-11T08:09:21.117Z,334
2018-05-11T08:10:28.330Z,335
2018-05-11T08:11:35.550Z,335
2018-05-11T08:12:42.771Z,334
2018-05-11T08:13:49.435Z,333
2018-05-11T08:14:56.375Z,333
2018-05-11T08:16:03.591Z,332
2018-05-11T08:17:10.530Z,334
2018-05-11T08:18:17.746Z,333
2018-05-11T08:19:24.682Z,331
2018-05-11T08:20:31.636Z,331
2018-05-11T08:21:38.587Z,330
2018-05-11T08:22:45.797Z,331
2018-05-11T08:23:52.741Z,332
2018-05-11T08:24:59.674Z,333
2018-05-11T08:26:06.889Z,332
2018-05-11T08:27:14.124Z,332
2018-05-11T08:28:20.789Z,332
2018-05-11T08:29:28.002Z,332
2018-05-11T08:30:34.939Z,332
2018-05-11T08:31:42.157Z,332
2018-05-11T08:32:49.395Z,332
2018-05-11T08:33:56.065Z,334
2018-05-11T08:35:03.087Z,333
2018-05-11T08:36:10.300Z,333
2018-05-11T08:37:17.517Z,332
2018-05-11T08:38:24.724Z,334
2018-05-11T08:39:31.654Z,332
2018-05-11T08:40:38.869Z,331
2018-05-11T08:41:45.811Z,330
2018-05-11T08:42:53.014Z,330
2018-05-11T08:44:00.228Z,330
2018-05-11T08:45:07.192Z,330
2018-05-11T08:46:14.405Z,329
2018-05-11T08:47:21.617Z,330
2018-05-11T08:48:28.822Z,329
2018-05-11T08:49:36.033Z,329
2018-05-11T08:50:43.243Z,330
2018-05-11T08:51:50.649Z,329
2018-05-11T08:52:57.935Z,329
2018-05-11T08:54:05.149Z,328
2018-05-11T08:55:12.365Z,328
2018-05-11T08:56:19.636Z,327
2018-05-11T08:57:26.848Z,328
2018-05-11T08:58:34.059Z,328
2018-05-11T08:59:40.993Z,328
2018-05-11T09:00:48.205Z,331
2018-05-11T09:01:55.140Z,331
2018-05-11T09:03:02.151Z,331
2018-05-11T09:04:09.456Z,331
2018-05-11T09:05:16.673Z,330
2018-05-11T09:06:23.889Z,330
2018-05-11T09:07:31.097Z,331
2018-05-11T09:08:38.530Z,332
2018-05-11T09:09:45.783Z,331
2018-05-11T09:10:53.001Z,330
2018-05-11T09:12:00.216Z,330
2018-05-11T09:13:07.434Z,329
2018-05-11T09:14:14.648Z,329
2018-05-11T09:15:22.082Z,331
2018-05-11T09:16:29.299Z,335
2018-05-11T09:17:36.511Z,336
2018-05-11T09:18:43.735Z,335
2018-05-11T09:19:50.952Z,335
2018-05-11T09:20:58.162Z,336
2018-05-11T09:22:05.690Z,337
2018-05-11T09:23:12.709Z,337
2018-05-11T09:24:19.921Z,337
2018-05-11T09:25:26.855Z,336
2018-05-11T09:26:34.258Z,336
2018-05-11T09:27:56.123Z,335
2018-05-11T09:29:03.343Z,334
2018-05-11T09:30:11.126Z,335
2018-05-11T09:31:18.353Z,333
2018-05-11T09:32:25.583Z,332
2018-05-11T09:33:32.802Z,331
2018-05-11T09:34:40.018Z,330
2018-05-11T09:35:47.229Z,331
2018-05-11T09:36:54.453Z,331
2018-05-11T09:38:01.674Z,331
2018-05-11T09:39:08.611Z,333
2018-05-11T09:40:15.828Z,335
2018-05-11T09:41:23.047Z,335
2018-05-11T09:42:30.263Z,334
2018-05-11T09:43:37.493Z,333
2018-05-11T09:44:44.711Z,332
2018-05-11T09:45:51.922Z,331
2018-05-11T09:46:59.143Z,329
2018-05-11T09:48:06.368Z,329
2018-05-11T09:49:13.614Z,329
2018-05-11T09:50:20.834Z,328
2018-05-11T09:51:28.051Z,328
2018-05-11T09:52:35.266Z,329
2018-05-11T09:53:42.474Z,326
2018-05-11T09:54:49.449Z,324
2018-05-11T09:55:56.662Z,326
2018-05-11T09:57:03.878Z,324
2018-05-11T09:58:11.086Z,320
2018-05-11T09:59:18.298Z,319
2018-05-11T10:00:25.516Z,319
2018-05-11T10:01:32.456Z,317
2018-05-11T10:02:39.665Z,318
2018-05-11T10:03:46.880Z,318
2018-05-11T10:04:54.095Z,317
2018-05-11T10:06:01.308Z,315
2018-05-11T10:07:08.526Z,315
2018-05-11T10:08:15.464Z,317
2018-05-11T10:09:22.408Z,312
2018-05-11T10:10:29.613Z,309
2018-05-11T10:11:36.551Z,310
2018-05-11T10:12:43.765Z,309
2018-05-11T10:13:51.155Z,311
2018-05-11T10:14:58.149Z,313
2018-05-11T10:16:05.367Z,310
2018-05-11T10:17:12.582Z,308
2018-05-11T10:18:19.795Z,310
2018-05-11T10:19:27.008Z,310
2018-05-11T10:20:34.244Z,311
2018-05-11T10:21:41.455Z,313
2018-05-11T10:22:48.660Z,317
2018-05-11T10:23:55.601Z,313
2018-05-11T10:25:02.815Z,311
2018-05-11T10:26:10.036Z,316
2018-05-11T10:27:17.246Z,313
2018-05-11T10:28:24.458Z,309
2018-05-11T10:29:31.677Z,307
2018-05-11T10:30:38.914Z,311
2018-05-11T10:31:45.858Z,309
2018-05-11T10:32:53.072Z,308
2018-05-11T10:34:00.284Z,320
2018-05-11T10:35:07.500Z,326
2018-05-11T10:36:14.439Z,328
2018-05-11T10:37:21.651Z,330
2018-05-11T10:38:28.875Z,332
2018-05-11T10:39:35.812Z,329
2018-05-11T10:40:43.022Z,320
2018-05-11T10:41:50.243Z,317
2018-05-11T10:42:57.455Z,309
2018-05-11T10:44:04.693Z,321
2018-05-11T10:45:11.895Z,328
2018-05-11T10:46:19.121Z,330
2018-05-11T10:47:26.334Z,328
2018-05-11T10:48:33.634Z,316
2018-05-11T10:49:40.903Z,324
2018-05-11T10:50:48.119Z,327
2018-05-11T10:51:55.335Z,316
2018-05-11T10:53:02.281Z,311
2018-05-11T10:54:09.496Z,322
2018-05-11T10:55:16.708Z,328
2018-05-11T10:56:23.659Z,332
2018-05-11T10:57:30.868Z,333
2018-05-11T10:58:38.087Z,335
2018-05-11T10:59:45.315Z,335
2018-05-11T11:00:52.523Z,335
2018-05-11T11:01:59.745Z,337
2018-05-11T11:03:07.009Z,335
2018-05-11T11:04:14.230Z,334
2018-05-11T11:05:21.440Z,334
2018-05-11T11:06:28.654Z,335
2018-05-11T11:07:35.874Z,334
2018-05-11T11:08:43.093Z,332
2018-05-11T11:09:50.303Z,330
2018-05-11T11:10:57.520Z,330
2018-05-11T11:12:04.733Z,320
2018-05-11T11:13:11.958Z,316
2018-05-11T11:14:19.181Z,319
2018-05-11T11:15:26.392Z,329
2018-05-11T11:16:33.608Z,335
2018-05-11T11:17:40.823Z,337
2018-05-11T11:18:48.033Z,336
2018-05-11T11:19:55.099Z,337
2018-05-11T11:21:02.305Z,337
2018-05-11T11:22:09.250Z,337
2018-05-11T11:23:16.466Z,337
2018-05-11T11:24:23.684Z,333
2018-05-11T11:25:30.894Z,329
2018-05-11T11:26:37.553Z,329
2018-05-11T11:27:44.764Z,329
2018-05-11T11:28:51.977Z,320
2018-05-11T11:29:59.190Z,306
2018-05-11T11:31:06.403Z,305
2018-05-11T11:32:13.613Z,317
2018-05-11T11:33:20.826Z,324
2018-05-11T11:34:28.419Z,330
2018-05-11T11:35:35.843Z,335
2018-05-11T11:36:43.054Z,335
2018-05-11T11:37:50.423Z,336
2018-05-11T11:38:57.699Z,335
2018-05-11T11:40:04.912Z,331
2018-05-11T11:41:12.134Z,327
2018-05-11T11:42:19.386Z,325
2018-05-11T11:43:26.599Z,327
2018-05-11T11:44:33.545Z,325
2018-05-11T11:45:40.757Z,322
2018-05-11T11:46:47.971Z,319
2018-05-11T11:47:55.210Z,315
2018-05-11T11:49:02.419Z,312
2018-05-11T11:50:09.635Z,316
2018-05-11T11:51:16.852Z,308
2018-05-11T11:52:23.795Z,305
2018-05-11T11:53:31.010Z,312
2018-05-11T11:54:38.231Z,322
2018-05-11T11:55:45.454Z,322
2018-05-11T11:56:52.661Z,328
2018-05-11T11:57:59.873Z,328
2018-05-11T11:59:07.091Z,329
2018-05-11T12:00:14.299Z,328
2018-05-11T12:01:21.520Z,326
2018-05-11T12:02:28.732Z,328
2018-05-11T12:03:35.947Z,325
2018-05-11T12:04:43.164Z,322
2018-05-11T12:05:50.388Z,316
2018-05-11T12:06:57.319Z,310
2018-05-11T12:08:04.242Z,312
2018-05-11T12:09:11.450Z,315
2018-05-11T12:10:18.663Z,317
2018-05-11T12:11:25.878Z,324
2018-05-11T12:12:33.121Z,333
2018-05-11T12:13:40.333Z,336
2018-05-11T12:14:47.549Z,334
2018-05-11T12:15:54.767Z,333
2018-05-11T12:17:01.706Z,334
2018-05-11T12:18:08.919Z,336
2018-05-11T12:19:16.137Z,336
2018-05-11T12:20:23.099Z,335
2018-05-11T12:21:30.040Z,333
2018-05-11T12:22:36.999Z,335
2018-05-11T12:23:44.213Z,337
2018-05-11T12:24:51.428Z,336
2018-05-11T12:25:58.651Z,335
2018-05-11T12:27:05.864Z,331
2018-05-11T12:28:13.089Z,333
2018-05-11T12:29:20.303Z,335
2018-05-11T12:30:27.540Z,335
2018-05-11T12:31:34.753Z,336
2018-05-11T12:32:41.968Z,337
2018-05-11T12:33:49.184Z,337
2018-05-11T12:34:56.721Z,335
2018-05-11T12:36:03.965Z,335
2018-05-11T12:37:11.256Z,330
2018-05-11T12:38:18.463Z,318
2018-05-11T12:39:25.676Z,323
2018-05-11T12:40:32.895Z,327
2018-05-11T12:41:40.116Z,325
2018-05-11T12:42:47.332Z,323
2018-05-11T12:43:54.277Z,323
2018-05-11T12:45:01.520Z,319
2018-05-11T12:46:08.471Z,322
2018-05-11T12:47:15.685Z,327
2018-05-11T12:48:22.901Z,324
2018-05-11T12:49:29.860Z,320
2018-05-11T12:50:36.782Z,317
2018-05-11T12:51:44.033Z,319
2018-05-11T12:52:51.335Z,312
2018-05-11T12:53:58.301Z,318
2018-05-11T12:55:05.516Z,323
2018-05-11T12:56:12.736Z,327
2018-05-11T12:57:19.964Z,330
2018-05-11T12:58:27.185Z,332
2018-05-11T12:59:34.407Z,332
2018-05-11T13:00:41.621Z,334
2018-05-11T13:01:48.843Z,335
2018-05-11T13:02:55.789Z,333
2018-05-11T13:04:03.049Z,331
2018-05-11T13:05:10.272Z,336
2018-05-11T13:06:17.491Z,341
2018-05-11T13:07:24.708Z,344
2018-05-11T13:08:31.928Z,341
2018-05-11T13:09:39.145Z,341
2018-05-11T13:10:46.096Z,318
2018-05-11T13:11:53.310Z,320
2018-05-11T13:13:00.702Z,316
2018-05-11T13:14:08.011Z,315
2018-05-11T13:15:15.225Z,316
2018-05-11T13:16:22.170Z,329
2018-05-11T13:17:29.379Z,344
2018-05-11T13:18:36.605Z,356
2018-05-11T13:19:43.613Z,356
2018-05-11T13:20:51.118Z,352
2018-05-11T13:21:58.632Z,350
2018-05-11T13:23:05.833Z,351
2018-05-11T13:24:13.046Z,350
2018-05-11T13:25:20.260Z,345
2018-05-11T13:26:27.475Z,346
2018-05-11T13:27:34.698Z,332
2018-05-11T13:28:41.916Z,321
2018-05-11T13:29:49.145Z,327
2018-05-11T13:30:56.361Z,336
2018-05-11T13:32:03.300Z,340
2018-05-11T13:33:10.510Z,343
2018-05-11T13:34:17.728Z,333
2018-05-11T13:35:24.946Z,332
2018-05-11T13:36:32.343Z,333
2018-05-11T13:37:39.798Z,333
2018-05-11T13:38:46.748Z,330
2018-05-11T13:39:53.969Z,332
2018-05-11T13:41:01.183Z,344
2018-05-11T13:42:08.598Z,342
2018-05-11T13:43:15.907Z,335
2018-05-11T13:44:22.868Z,349
2018-05-11T13:45:30.098Z,357
2018-05-11T13:46:37.384Z,358
2018-05-11T13:47:44.597Z,355
2018-05-11T13:48:51.813Z,344
2018-05-11T13:49:59.029Z,330
2018-05-11T13:51:05.972Z,329
2018-05-11T13:52:12.916Z,344
2018-05-11T13:53:20.129Z,358
2018-05-11T13:54:27.349Z,363
2018-05-11T13:55:34.563Z,362
2018-05-11T13:56:41.976Z,363
2018-05-11T13:57:49.195Z,366
2018-05-11T13:58:56.417Z,366
2018-05-11T14:00:03.633Z,366
2018-05-11T14:01:10.850Z,367
2018-05-11T14:02:18.065Z,367
2018-05-11T14:03:25.304Z,368
2018-05-11T14:04:32.418Z,348
2018-05-11T14:05:39.629Z,347
2018-05-11T14:06:46.855Z,347
2018-05-11T14:07:53.785Z,348
2018-05-11T14:09:01.033Z,350
2018-05-11T14:10:08.249Z,347
2018-05-11T14:11:15.259Z,347
2018-05-11T14:12:22.478Z,344
2018-05-11T14:13:29.691Z,347
2018-05-11T14:14:36.911Z,340
2018-05-11T14:15:44.127Z,340
2018-05-11T14:16:51.344Z,335
2018-05-11T14:17:58.564Z,339
2018-05-11T14:19:05.785Z,343
2018-05-11T14:20:12.718Z,348
2018-05-11T14:21:19.940Z,353
2018-05-11T14:22:26.879Z,355
2018-05-11T14:23:33.842Z,354
2018-05-11T14:24:41.069Z,353
2018-05-11T14:25:48.286Z,352
2018-05-11T14:26:55.499Z,351
2018-05-11T14:28:02.710Z,352
2018-05-11T14:29:09.927Z,352
2018-05-11T14:30:17.141Z,355
2018-05-11T14:31:24.076Z,353
2018-05-11T14:32:31.294Z,354
2018-05-11T14:33:38.505Z,354
2018-05-11T14:34:45.720Z,353
2018-05-11T14:35:52.935Z,351
2018-05-11T14:37:00.149Z,352
2018-05-11T14:38:07.096Z,351
2018-05-11T14:39:14.112Z,352
2018-05-11T14:40:21.046Z,351
2018-05-11T14:41:28.262Z,349
2018-05-11T14:42:35.204Z,351
2018-05-11T14:43:42.574Z,351
2018-05-11T14:44:49.783Z,350
2018-05-11T14:45:56.724Z,350
2018-05-11T14:47:03.944Z,350
2018-05-11T14:48:11.163Z,349
2018-05-11T14:49:18.383Z,350
2018-05-11T14:50:25.600Z,346
2018-05-11T14:51:32.815Z,346
2018-05-11T14:52:40.030Z,349
2018-05-11T14:53:47.244Z,345
2018-05-11T14:54:54.464Z,348
2018-05-11T14:56:01.672Z,349
2018-05-11T14:57:08.886Z,349
2018-05-11T14:58:15.828Z,348
2018-05-11T14:59:23.048Z,350
2018-05-11T15:00:30.267Z,347
2018-05-11T15:01:37.474Z,336
2018-05-11T15:02:44.687Z,343
2018-05-11T15:03:51.904Z,344
2018-05-11T15:04:58.855Z,341
2018-05-11T15:06:06.076Z,331
2018-05-11T15:07:13.291Z,325
2018-05-11T15:08:20.507Z,320
2018-05-11T15:09:27.720Z,320
2018-05-11T15:10:34.934Z,313
2018-05-11T15:11:42.150Z,314
2018-05-11T15:12:49.376Z,320
2018-05-11T15:13:56.597Z,320
2018-05-11T15:15:03.812Z,323
2018-05-11T15:16:11.032Z,323
2018-05-11T15:17:18.251Z,329
2018-05-11T15:18:25.466Z,337
2018-05-11T15:19:32.679Z,343
2018-05-11T15:20:39.891Z,347
2018-05-11T15:21:47.101Z,349
2018-05-11T15:22:54.323Z,350
2018-05-11T15:24:01.533Z,352
2018-05-11T15:25:08.740Z,353
2018-05-11T15:26:15.965Z,352